Time;durP1;ratioP1;P1;durP2;ratioP2;P2;SDS_P1;SDS_P2;PMS_P1;PMS_P2;Temp;Humidity;BMP_temperature;BMP_pressure;BME280_temperature;BME280_humidity;BME280_pressure;Samples;Min_cycle;Max_cycle;Signal;HPM_P1;HPM_P2
2024/03/14 00:00:29;;;;;;;;;;;;;;;10.24;nan;100590.00;5007077;28;19926;-71
2024/03/14 00:02:55;;;;;;;;;;;;;;;10.20;nan;100586.84;4995116;28;20359;-70
2024/03/14 00:05:20;;;;;;;;;;;;;;;10.19;nan;100589.63;5001715;28;19926;-70
2024/03/14 00:07:47;;;;;;;;;;;;;;;10.13;nan;100588.41;5010031;28;19922;-71
2024/03/14 00:10:12;;;;;;;;;;;;;;;10.07;nan;100581.06;5009609;28;19921;-71
2024/03/14 00:12:37;;;;;;;;;;;;;;;10.06;nan;100591.75;5010319;28;19941;-70
2024/03/14 00:15:03;;;;;;;;;;;;;;;10.02;nan;100587.78;5010603;28;19936;-70
2024/03/14 00:17:29;;;;;;;;;;;;;;;9.98;nan;100585.41;5009780;28;20080;-70
2024/03/14 00:19:54;;;;;;;;;;;;;;;9.99;nan;100583.63;5009881;28;19922;-70
2024/03/14 00:22:21;;;;;;;;;;;;;;;9.99;nan;100576.50;5009842;28;19936;-71
2024/03/14 00:24:46;;;;;;;;;;;;;;;10.00;nan;100583.44;5009285;28;20072;-70
2024/03/14 00:27:13;;;;;;;;;;;;;;;10.01;nan;100573.75;5010014;28;20442;-70
2024/03/14 00:29:38;;;;;;;;;;;;;;;10.02;nan;100575.38;5009981;28;20061;-70
2024/03/14 00:32:03;;;;;;;;;;;;;;;10.01;nan;100576.38;5009561;28;20008;-71
2024/03/14 00:34:29;;;;;;;;;;;;;;;9.99;nan;100573.88;5009603;28;19973;-71
2024/03/14 00:36:55;;;;;;;;;;;;;;;9.96;nan;100565.38;5011557;28;19922;-71
2024/03/14 00:39:21;;;;;;;;;;;;;;;9.91;nan;100565.84;5009431;28;20444;-71
2024/03/14 00:41:47;;;;;;;;;;;;;;;9.89;nan;100573.09;5010113;28;19925;-71
2024/03/14 00:44:13;;;;;;;;;;;;;;;9.90;nan;100569.47;5008848;28;20059;-72
2024/03/14 00:46:38;;;;;;;;;;;;;;;9.88;nan;100574.06;5012418;28;20420;-71
2024/03/14 00:49:03;;;;;;;;;;;;;;;9.84;nan;100574.50;5017983;28;20449;-71
2024/03/14 00:51:28;;;;;;;;;;;;;;;9.83;nan;100575.47;5009909;28;20100;-71
2024/03/14 00:53:54;;;;;;;;;;;;;;;9.83;nan;100573.66;5008923;28;19925;-71
2024/03/14 00:56:20;;;;;;;;;;;;;;;9.83;nan;100572.84;5008708;28;19929;-71
2024/03/14 00:58:47;;;;;;;;;;;;;;;9.83;nan;100568.38;5009589;28;19929;-71
2024/03/14 01:01:12;;;;;;;;;;;;;;;9.82;nan;100566.72;5007535;28;19936;-71
2024/03/14 01:03:37;;;;;;;;;;;;;;;9.79;nan;100578.38;5010284;28;19929;-71
2024/03/14 01:06:02;;;;;;;;;;;;;;;9.83;nan;100570.19;5007741;28;19917;-71
2024/03/14 01:08:28;;;;;;;;;;;;;;;9.81;nan;100565.06;5008386;28;19959;-71
2024/03/14 01:10:54;;;;;;;;;;;;;;;9.82;nan;100561.44;5006411;28;20601;-71
2024/03/14 01:13:19;;;;;;;;;;;;;;;9.83;nan;100570.19;5008999;28;19921;-71
2024/03/14 01:15:44;;;;;;;;;;;;;;;9.86;nan;100559.34;5009714;28;19993;-71
2024/03/14 01:18:09;;;;;;;;;;;;;;;9.87;nan;100558.38;5009443;28;20338;-71
2024/03/14 01:20:35;;;;;;;;;;;;;;;9.83;nan;100570.19;5009249;28;20375;-71
2024/03/14 01:23:00;;;;;;;;;;;;;;;9.81;nan;100562.41;5009386;28;19928;-71
2024/03/14 01:25:25;;;;;;;;;;;;;;;9.81;nan;100557.13;5009792;28;19944;-71
2024/03/14 01:27:50;;;;;;;;;;;;;;;9.83;nan;100557.00;5009441;28;19976;-71
2024/03/14 01:30:16;;;;;;;;;;;;;;;9.85;nan;100560.31;5008649;28;19948;-72
2024/03/14 01:32:41;;;;;;;;;;;;;;;9.86;nan;100546.13;5010256;28;19921;-71
2024/03/14 01:35:07;;;;;;;;;;;;;;;9.82;nan;100547.38;5009213;28;20028;-71
2024/03/14 01:37:32;;;;;;;;;;;;;;;9.79;nan;100548.50;5010113;28;20008;-71
2024/03/14 01:39:58;;;;;;;;;;;;;;;9.81;nan;100551.84;5006479;28;20280;-71
2024/03/14 01:42:23;;;;;;;;;;;;;;;9.84;nan;100543.63;5008676;28;19979;-71
2024/03/14 01:44:54;;;;;;;;;;;;;;;9.85;nan;100542.66;5009176;28;19928;-71
2024/03/14 01:47:21;;;;;;;;;;;;;;;9.86;nan;100546.13;5009009;28;19982;-71
2024/03/14 01:49:46;;;;;;;;;;;;;;;9.85;nan;100541.84;5008053;28;19975;-71
2024/03/14 01:52:12;;;;;;;;;;;;;;;9.84;nan;100538.34;5008858;28;19933;-71
2024/03/14 01:54:37;;;;;;;;;;;;;;;9.83;nan;100536.69;5008514;28;19929;-71
2024/03/14 01:57:02;;;;;;;;;;;;;;;9.69;nan;100530.06;5008278;28;20285;-71
2024/03/14 01:59:28;;;;;;;;;;;;;;;9.65;nan;100525.22;5008214;28;19968;-71
2024/03/14 02:01:57;;;;;;;;;;;;;;;9.60;nan;100520.38;5008180;28;20008;-71
2024/03/14 02:04:27;;;;;;;;;;;;;;;9.55;nan;100527.91;5008197;28;20287;-71
2024/03/14 02:06:57;;;;;;;;;;;;;;;9.49;nan;100518.78;5007954;28;19986;-71
2024/03/14 02:09:22;;;;;;;;;;;;;;;9.45;nan;100514.75;5006809;28;19921;-71
2024/03/14 02:11:48;;;;;;;;;;;;;;;9.43;nan;100516.72;5007887;28;20028;-71
2024/03/14 02:14:13;;;;;;;;;;;;;;;9.40;nan;100524.09;5006029;28;20150;-72
2024/03/14 02:16:38;;;;;;;;;;;;;;;9.36;nan;100520.91;5008294;28;20326;-71
2024/03/14 02:19:03;;;;;;;;;;;;;;;9.33;nan;100516.75;5007569;28;19929;-71
2024/03/14 02:21:28;;;;;;;;;;;;;;;9.31;nan;100509.94;5007028;28;19980;-71
2024/03/14 02:23:54;;;;;;;;;;;;;;;9.29;nan;100514.53;5008400;28;19952;-71
2024/03/14 02:26:19;;;;;;;;;;;;;;;9.24;nan;100514.97;5007098;28;20012;-71
2024/03/14 02:28:44;;;;;;;;;;;;;;;9.14;nan;100517.63;5008757;28;19925;-71
2024/03/14 02:31:09;;;;;;;;;;;;;;;9.08;nan;100514.72;5003091;28;19921;-71
2024/03/14 02:33:34;;;;;;;;;;;;;;;9.06;nan;100512.25;4988308;28;19925;-71
2024/03/14 02:36:00;;;;;;;;;;;;;;;9.06;nan;100514.06;4988193;28;20402;-71
2024/03/14 02:38:25;;;;;;;;;;;;;;;9.03;nan;100506.41;5006018;28;20024;-71
2024/03/14 02:40:50;;;;;;;;;;;;;;;9.00;nan;100507.53;4999170;28;20025;-71
2024/03/14 02:43:16;;;;;;;;;;;;;;;8.99;nan;100511.16;4983914;28;19921;-71
2024/03/14 02:45:41;;;;;;;;;;;;;;;8.97;nan;100504.34;5001656;28;20023;-71
2024/03/14 02:48:06;;;;;;;;;;;;;;;8.92;nan;100505.59;5006880;28;19929;-71
2024/03/14 02:50:31;;;;;;;;;;;;;;;8.90;nan;100499.63;5005736;28;19925;-71
2024/03/14 02:52:57;;;;;;;;;;;;;;;8.87;nan;100492.00;5007130;28;20349;-70
2024/03/14 02:55:22;;;;;;;;;;;;;;;8.83;nan;100493.25;5007587;28;19921;-70
2024/03/14 02:57:47;;;;;;;;;;;;;;;8.79;nan;100481.31;5007456;28;20477;-70
2024/03/14 03:00:16;;;;;;;;;;;;;;;8.75;nan;100492.28;5006116;28;19971;-71
2024/03/14 03:02:41;;;;;;;;;;;;;;;8.69;nan;100485.78;5007585;28;19971;-71
2024/03/14 03:05:07;;;;;;;;;;;;;;;8.65;nan;100477.34;5007090;28;19956;-71
2024/03/14 03:07:34;;;;;;;;;;;;;;;8.61;nan;100483.88;5006575;28;19925;-70
2024/03/14 03:09:59;;;;;;;;;;;;;;;8.55;nan;100487.03;5006819;28;19921;-70
2024/03/14 03:12:24;;;;;;;;;;;;;;;8.50;nan;100484.81;5006605;28;19972;-71
2024/03/14 03:14:52;;;;;;;;;;;;;;;8.44;nan;100474.84;5003130;28;19926;-71
2024/03/14 03:17:17;;;;;;;;;;;;;;;8.38;nan;100480.63;5005251;28;19968;-71
2024/03/14 03:19:43;;;;;;;;;;;;;;;8.34;nan;100475.78;5006391;28;19968;-71
2024/03/14 03:22:09;;;;;;;;;;;;;;;8.29;nan;100484.94;5003621;28;20047;-71
2024/03/14 03:24:36;;;;;;;;;;;;;;;8.26;nan;100474.66;5007043;28;19917;-70
2024/03/14 03:27:13;;;;;;;;;;;;;;;8.23;nan;100477.59;5008635;28;19921;-70
2024/03/14 03:29:38;;;;;;;;;;;;;;;8.20;nan;100474.38;4999650;28;19921;-71
2024/03/14 03:32:03;;;;;;;;;;;;;;;8.17;nan;100472.84;5005550;28;20334;-71
2024/03/14 03:34:29;;;;;;;;;;;;;;;8.14;nan;100467.06;5006651;28;19956;-70
2024/03/14 03:36:54;;;;;;;;;;;;;;;8.11;nan;100468.16;5007759;28;19926;-70
2024/03/14 03:39:19;;;;;;;;;;;;;;;8.08;nan;100465.81;5005994;28;19921;-70
2024/03/14 03:41:46;;;;;;;;;;;;;;;8.05;nan;100461.63;5005888;28;20450;-70
2024/03/14 03:44:11;;;;;;;;;;;;;;;8.04;nan;100459.97;5005426;28;20283;-70
2024/03/14 03:46:41;;;;;;;;;;;;;;;8.05;nan;100460.78;5005401;28;19922;-71
2024/03/14 03:49:07;;;;;;;;;;;;;;;8.04;nan;100467.03;5006838;28;20034;-70
2024/03/14 03:51:33;;;;;;;;;;;;;;;8.04;nan;100462.59;5005666;28;19934;-71
2024/03/14 03:53:58;;;;;;;;;;;;;;;8.04;nan;100462.59;5006653;28;19921;-71
2024/03/14 03:56:24;;;;;;;;;;;;;;;8.06;nan;100465.09;5005484;28;19931;-72
2024/03/14 03:58:49;;;;;;;;;;;;;;;8.07;nan;100464.13;5006656;28;19926;-72
2024/03/14 04:01:20;;;;;;;;;;;;;;;8.07;nan;100467.59;5005779;28;20346;-72
2024/03/14 04:03:45;;;;;;;;;;;;;;;8.07;nan;100470.22;4990890;28;19957;-72
2024/03/14 04:06:15;;;;;;;;;;;;;;;8.08;nan;100469.25;4986527;28;19922;-73
2024/03/14 04:08:40;;;;;;;;;;;;;;;8.08;nan;100466.63;4989393;28;19922;-72
2024/03/14 04:11:09;;;;;;;;;;;;;;;8.10;nan;100471.75;4991753;28;20379;-72
2024/03/14 04:13:34;;;;;;;;;;;;;;;8.08;nan;100474.53;5006512;28;19929;-72
2024/03/14 04:16:06;;;;;;;;;;;;;;;8.09;nan;100470.09;5006518;28;19922;-72
2024/03/14 04:18:31;;;;;;;;;;;;;;;8.11;nan;100468.16;5002663;28;20048;-72
2024/03/14 04:20:56;;;;;;;;;;;;;;;8.14;nan;100464.41;4992371;28;20032;-72
2024/03/14 04:23:22;;;;;;;;;;;;;;;8.16;nan;100465.94;5006753;28;20385;-72
2024/03/14 04:25:47;;;;;;;;;;;;;;;8.17;nan;100472.03;5006804;28;19933;-72
2024/03/14 04:28:13;;;;;;;;;;;;;;;8.17;nan;100467.59;5005888;28;19979;-72
2024/03/14 04:30:38;;;;;;;;;;;;;;;8.17;nan;100464.97;5005978;28;19932;-72
2024/03/14 04:33:03;;;;;;;;;;;;;;;8.19;nan;100465.66;5008804;28;19926;-72
2024/03/14 04:35:28;;;;;;;;;;;;;;;8.19;nan;100465.66;5009858;28;20276;-72
2024/03/14 04:37:54;;;;;;;;;;;;;;;8.18;nan;100464.00;5013241;28;19921;-72
2024/03/14 04:40:19;;;;;;;;;;;;;;;8.15;nan;100464.28;5008927;28;20402;-72
2024/03/14 04:42:46;;;;;;;;;;;;;;;8.10;nan;100463.84;5010026;28;20275;-72
2024/03/14 04:45:13;;;;;;;;;;;;;;;8.04;nan;100470.50;5009957;28;19933;-72
2024/03/14 04:47:38;;;;;;;;;;;;;;;7.97;nan;100474.66;5010350;28;20254;-72
2024/03/14 04:50:04;;;;;;;;;;;;;;;7.90;nan;100470.06;5009968;28;19922;-72
2024/03/14 04:52:29;;;;;;;;;;;;;;;7.82;nan;100479.47;5009455;28;20413;-72
2024/03/14 04:54:54;;;;;;;;;;;;;;;7.77;nan;100479.06;5011797;28;20275;-72
2024/03/14 04:57:20;;;;;;;;;;;;;;;7.73;nan;100476.81;5004844;28;20978;-72
2024/03/14 04:59:45;;;;;;;;;;;;;;;7.68;nan;100474.59;5009314;28;19932;-72
2024/03/14 05:02:10;;;;;;;;;;;;;;;7.66;nan;100479.97;5008934;28;19933;-73
2024/03/14 05:04:35;;;;;;;;;;;;;;;7.66;nan;100479.97;5007736;28;20274;-72
2024/03/14 05:07:01;;;;;;;;;;;;;;;7.66;nan;100471.25;5009410;28;19925;-72
2024/03/14 05:09:27;;;;;;;;;;;;;;;7.68;nan;100474.59;5008847;28;20363;-72
2024/03/14 05:11:52;;;;;;;;;;;;;;;7.70;nan;100474.44;5005279;28;20379;-72
2024/03/14 05:14:17;;;;;;;;;;;;;;;7.70;nan;100471.81;5005709;28;19929;-72
2024/03/14 05:16:43;;;;;;;;;;;;;;;7.70;nan;100472.66;5008787;28;20016;-72
2024/03/14 05:19:08;;;;;;;;;;;;;;;7.70;nan;100474.44;5009608;28;19921;-72
2024/03/14 05:21:34;;;;;;;;;;;;;;;7.68;nan;100471.97;5008628;28;20008;-72
2024/03/14 05:23:59;;;;;;;;;;;;;;;7.63;nan;100474.16;5009388;28;19922;-72
2024/03/14 05:26:27;;;;;;;;;;;;;;;7.60;nan;100477.03;5008364;28;19955;-72
2024/03/14 05:28:52;;;;;;;;;;;;;;;7.56;nan;100481.75;5009032;28;19933;-72
2024/03/14 05:31:17;;;;;;;;;;;;;;;7.53;nan;100473.28;5008647;28;19921;-72
2024/03/14 05:33:43;;;;;;;;;;;;;;;7.50;nan;100474.38;5009088;28;19952;-72
2024/03/14 05:36:08;;;;;;;;;;;;;;;7.46;nan;100478.25;5012353;28;20063;-72
2024/03/14 05:38:33;;;;;;;;;;;;;;;7.44;nan;100473.13;5010477;28;19929;-72
2024/03/14 05:40:59;;;;;;;;;;;;;;;7.47;nan;100463.31;5010452;28;19929;-72
2024/03/14 05:43:24;;;;;;;;;;;;;;;7.44;nan;100464.41;5011138;28;19928;-72
2024/03/14 05:45:49;;;;;;;;;;;;;;;7.41;nan;100460.25;5008771;28;19963;-72
2024/03/14 05:48:15;;;;;;;;;;;;;;;7.40;nan;100457.75;5007152;28;19921;-72
2024/03/14 05:50:44;;;;;;;;;;;;;;;7.37;nan;100461.47;5008301;28;19992;-72
2024/03/14 05:53:09;;;;;;;;;;;;;;;7.33;nan;100460.06;5006957;28;19944;-72
2024/03/14 05:55:34;;;;;;;;;;;;;;;7.30;nan;100457.69;5008386;28;19921;-72
2024/03/14 05:57:59;;;;;;;;;;;;;;;7.27;nan;100457.13;5007641;28;20071;-72
2024/03/14 06:00:25;;;;;;;;;;;;;;;7.24;nan;100455.59;5007219;28;19925;-72
2024/03/14 06:02:51;;;;;;;;;;;;;;;7.23;nan;100459.19;5007653;28;19929;-72
2024/03/14 06:05:16;;;;;;;;;;;;;;;7.23;nan;100460.03;5007050;28;19928;-72
2024/03/14 06:07:42;;;;;;;;;;;;;;;7.23;nan;100462.66;5007999;28;19921;-72
2024/03/14 06:10:08;;;;;;;;;;;;;;;7.24;nan;100452.97;5007291;28;20302;-72
2024/03/14 06:12:33;;;;;;;;;;;;;;;7.23;nan;100457.41;5007768;28;19922;-72
2024/03/14 06:14:59;;;;;;;;;;;;;;;7.23;nan;100456.56;4999548;28;19922;-72
2024/03/14 06:17:25;;;;;;;;;;;;;;;7.25;nan;100452.00;4991106;28;19922;-72
2024/03/14 06:19:50;;;;;;;;;;;;;;;7.29;nan;100447.31;5003700;28;19969;-72
2024/03/14 06:22:15;;;;;;;;;;;;;;;7.33;nan;100449.53;5007631;28;19961;-72
2024/03/14 06:24:43;;;;;;;;;;;;;;;7.42;nan;100442.66;5006667;28;19928;-72
2024/03/14 06:27:09;;;;;;;;;;;;;;;7.54;nan;100443.38;5006936;28;19933;-72
2024/03/14 06:29:34;;;;;;;;;;;;;;;7.63;nan;100453.94;5007227;28;20350;-72
2024/03/14 06:31:59;;;;;;;;;;;;;;;7.72;nan;100452.28;5007269;28;20007;-72
2024/03/14 06:34:24;;;;;;;;;;;;;;;7.78;nan;100457.00;5006954;28;19930;-72
2024/03/14 06:36:50;;;;;;;;;;;;;;;7.84;nan;100459.13;5008857;28;19932;-72
2024/03/14 06:39:17;;;;;;;;;;;;;;;7.93;nan;100454.00;5007545;28;19926;-72
2024/03/14 06:41:43;;;;;;;;;;;;;;;8.04;nan;100461.78;5007393;28;20004;-72
2024/03/14 06:44:08;;;;;;;;;;;;;;;8.13;nan;100455.69;5007831;28;20130;-72
2024/03/14 06:46:33;;;;;;;;;;;;;;;8.23;nan;100455.69;5006258;28;19999;-72
2024/03/14 06:48:59;;;;;;;;;;;;;;;8.30;nan;100457.63;5007006;28;20326;-72
2024/03/14 06:51:24;;;;;;;;;;;;;;;8.38;nan;100456.09;5007079;28;19979;-72
2024/03/14 06:53:50;;;;;;;;;;;;;;;8.43;nan;100460.00;5007032;28;19928;-72
2024/03/14 06:56:17;;;;;;;;;;;;;;;8.50;nan;100466.38;5005828;28;19983;-72
2024/03/14 06:58:44;;;;;;;;;;;;;;;8.57;nan;100464.03;5006321;28;20504;-72
2024/03/14 07:01:09;;;;;;;;;;;;;;;8.65;nan;100468.59;5006623;28;19937;-72
2024/03/14 07:03:35;;;;;;;;;;;;;;;8.73;nan;100460.81;5006367;28;19929;-72
2024/03/14 07:06:00;;;;;;;;;;;;;;;8.79;nan;100456.78;5006816;28;19921;-72
2024/03/14 07:08:28;;;;;;;;;;;;;;;8.87;nan;100467.47;5006937;28;19921;-72
2024/03/14 07:10:54;;;;;;;;;;;;;;;8.96;nan;100461.31;4999131;28;19952;-72
2024/03/14 07:13:19;;;;;;;;;;;;;;;9.03;nan;100465.03;5006867;28;19949;-72
2024/03/14 07:15:47;;;;;;;;;;;;;;;9.13;nan;100471.13;5000945;28;20378;-72
2024/03/14 07:18:12;;;;;;;;;;;;;;;9.24;nan;100464.00;5001919;28;20005;-72
2024/03/14 07:20:41;;;;;;;;;;;;;;;9.40;nan;100472.13;5003910;28;20009;-72
2024/03/14 07:23:06;;;;;;;;;;;;;;;9.50;nan;100467.63;5000808;28;20341;-72
2024/03/14 07:25:31;;;;;;;;;;;;;;;9.60;nan;100462.31;5012947;28;20027;-72
2024/03/14 07:27:56;;;;;;;;;;;;;;;9.68;nan;100465.06;4998427;28;19961;-72
2024/03/14 07:30:24;;;;;;;;;;;;;;;9.74;nan;100464.44;5004516;28;19924;-72
2024/03/14 07:32:50;;;;;;;;;;;;;;;9.89;nan;100463.94;4989490;28;21736;-72
2024/03/14 07:35:17;;;;;;;;;;;;;;;10.00;nan;100469.03;5007450;28;19964;-72
2024/03/14 07:37:44;;;;;;;;;;;;;;;10.10;nan;100467.13;5014498;28;19925;-72
2024/03/14 07:40:11;;;;;;;;;;;;;;;10.18;nan;100471.69;5005617;28;19933;-72
2024/03/14 07:42:39;;;;;;;;;;;;;;;10.30;nan;100474.97;5006684;28;19925;-72
2024/03/14 07:45:07;;;;;;;;;;;;;;;10.41;nan;100472.91;5010479;28;20015;-72
2024/03/14 07:47:33;;;;;;;;;;;;;;;10.52;nan;100474.50;4995490;28;19929;-72
2024/03/14 07:49:59;;;;;;;;;;;;;;;10.67;nan;100477.41;5004864;28;20284;-70
2024/03/14 07:52:26;;;;;;;;;;;;;;;10.87;nan;100482.53;5006440;28;19921;-70
2024/03/14 07:54:53;;;;;;;;;;;;;;;11.11;nan;100488.00;5007025;28;20523;-70
2024/03/14 07:57:18;;;;;;;;;;;;;;;11.40;nan;100482.34;5007031;28;20424;-70
2024/03/14 07:59:44;;;;;;;;;;;;;;;11.82;nan;100478.88;5006791;28;20030;-70
2024/03/14 08:02:11;;;;;;;;;;;;;;;12.24;nan;100482.47;5006350;28;19924;-71
2024/03/14 08:04:37;;;;;;;;;;;;;;;12.71;nan;100480.00;5006042;28;19999;-71
2024/03/14 08:07:10;;;;;;;;;;;;;;;13.05;nan;100475.50;5006458;28;20448;-70
2024/03/14 08:09:35;;;;;;;;;;;;;;;13.47;nan;100472.59;5017686;28;20453;-71
2024/03/14 08:12:03;;;;;;;;;;;;;;;13.90;nan;100474.88;5007220;28;19922;-72
2024/03/14 08:14:29;;;;;;;;;;;;;;;14.22;nan;100481.81;5008231;28;19933;-71
2024/03/14 08:16:55;;;;;;;;;;;;;;;14.53;nan;100473.75;5010537;28;19925;-71
2024/03/14 08:19:21;;;;;;;;;;;;;;;14.82;nan;100473.03;5010707;28;20401;-71
2024/03/14 08:21:47;;;;;;;;;;;;;;;15.26;nan;100482.09;5010242;28;19928;-71
2024/03/14 08:24:12;;;;;;;;;;;;;;;15.47;nan;100478.69;5010528;28;19921;-71
2024/03/14 08:26:37;;;;;;;;;;;;;;;15.85;nan;100474.06;5002094;28;19918;-72
2024/03/14 08:29:02;;;;;;;;;;;;;;;16.35;nan;100472.34;5010349;28;19964;-71
2024/03/14 08:31:28;;;;;;;;;;;;;;;16.66;nan;100473.00;5009771;28;20008;-70
2024/03/14 08:33:55;;;;;;;;;;;;;;;16.92;nan;100472.41;5009346;28;19925;-71
2024/03/14 08:36:21;;;;;;;;;;;;;;;17.24;nan;100475.50;5009219;28;20402;-71
2024/03/14 08:38:48;;;;;;;;;;;;;;;17.55;nan;100473.19;5008195;28;19926;-71
2024/03/14 08:41:13;;;;;;;;;;;;;;;17.63;nan;100480.22;5009145;28;20301;-71
2024/03/14 08:43:40;;;;;;;;;;;;;;;17.87;nan;100473.53;5009749;28;19921;-70
2024/03/14 08:46:06;;;;;;;;;;;;;;;18.17;nan;100471.38;5010500;28;19953;-72
2024/03/14 08:48:33;;;;;;;;;;;;;;;18.22;nan;100474.25;5011458;28;19917;-69
2024/03/14 08:50:58;;;;;;;;;;;;;;;18.08;nan;100463.72;5007696;28;19921;-69
2024/03/14 08:53:23;;;;;;;;;;;;;;;18.14;nan;100466.44;5009749;28;20443;-69
2024/03/14 08:55:55;;;;;;;;;;;;;;;18.27;nan;100468.28;5009869;28;20009;-69
2024/03/14 08:58:21;;;;;;;;;;;;;;;18.41;nan;100472.63;5010145;28;19925;-69
2024/03/14 09:00:47;;;;;;;;;;;;;;;18.52;nan;100468.53;5020169;28;20356;-69
2024/03/14 09:03:15;;;;;;;;;;;;;;;18.56;nan;100466.25;4995368;28;19926;-69
2024/03/14 09:05:41;;;;;;;;;;;;;;;18.56;nan;100469.75;5010776;28;19921;-69
2024/03/14 09:08:06;;;;;;;;;;;;;;;18.81;nan;100456.59;5011305;28;19953;-68
2024/03/14 09:10:33;;;;;;;;;;;;;;;18.83;nan;100464.41;5009293;28;19922;-69
2024/03/14 09:12:59;;;;;;;;;;;;;;;18.91;nan;100468.75;5009124;28;19997;-69
2024/03/14 09:15:24;;;;;;;;;;;;;;;18.95;nan;100472.66;5009819;28;19922;-69
2024/03/14 09:17:50;;;;;;;;;;;;;;;19.01;nan;100471.84;5005982;28;19952;-69
2024/03/14 09:20:16;;;;;;;;;;;;;;;19.14;nan;100469.13;5007472;28;19972;-69
2024/03/14 09:22:45;;;;;;;;;;;;;;;19.30;nan;100460.63;5007889;28;20651;-69
2024/03/14 09:25:14;;;;;;;;;;;;;;;19.44;nan;100471.31;5008569;28;19921;-69
2024/03/14 09:27:39;;;;;;;;;;;;;;;19.61;nan;100464.44;5008457;28;19918;-69
2024/03/14 09:30:08;;;;;;;;;;;;;;;19.62;nan;100468.78;5007567;28;19921;-69
2024/03/14 09:32:34;;;;;;;;;;;;;;;19.33;nan;100469.28;4992473;28;19964;-69
2024/03/14 09:34:59;;;;;;;;;;;;;;;19.04;nan;100468.72;5010056;28;19959;-69
2024/03/14 09:37:25;;;;;;;;;;;;;;;18.88;nan;100467.31;5008312;28;20375;-69
2024/03/14 09:39:50;;;;;;;;;;;;;;;18.30;nan;100464.38;5007599;28;19921;-69
2024/03/14 09:42:17;;;;;;;;;;;;;;;17.88;nan;100466.38;5007847;28;19928;-69
2024/03/14 09:44:43;;;;;;;;;;;;;;;18.81;nan;100461.97;5008008;28;20322;-69
2024/03/14 09:47:20;;;;;;;;;;;;;;;19.80;nan;100461.91;5008197;28;20398;-69
2024/03/14 09:49:48;;;;;;;;;;;;;;;20.55;nan;100465.59;5007662;28;19922;-69
2024/03/14 09:52:13;;;;;;;;;;;;;;;21.07;nan;100465.34;5007790;28;20422;-69
2024/03/14 09:54:38;;;;;;;;;;;;;;;20.79;nan;100466.63;5008615;28;19949;-69
2024/03/14 09:57:04;;;;;;;;;;;;;;;20.61;nan;100461.19;5007510;28;20072;-69
2024/03/14 09:59:30;;;;;;;;;;;;;;;20.69;nan;100462.78;5008670;28;19970;-69
2024/03/14 10:01:55;;;;;;;;;;;;;;;20.07;nan;100460.75;5007067;28;19936;-69
2024/03/14 10:04:21;;;;;;;;;;;;;;;19.81;nan;100460.91;5007169;28;19955;-70
2024/03/14 10:06:46;;;;;;;;;;;;;;;20.26;nan;100458.13;5007672;28;20606;-69
2024/03/14 10:09:12;;;;;;;;;;;;;;;20.59;nan;100452.53;5007768;28;19922;-69
2024/03/14 10:11:38;;;;;;;;;;;;;;;20.46;nan;100453.44;5007635;28;20067;-69
2024/03/14 10:14:06;;;;;;;;;;;;;;;21.19;nan;100457.34;5005916;28;19921;-69
2024/03/14 10:16:31;;;;;;;;;;;;;;;21.95;nan;100457.88;5006777;28;19932;-69
2024/03/14 10:18:58;;;;;;;;;;;;;;;21.74;nan;100460.03;5008524;28;20121;-69
2024/03/14 10:21:24;;;;;;;;;;;;;;;22.20;nan;100453.19;5008534;28;19953;-70
2024/03/14 10:23:49;;;;;;;;;;;;;;;23.07;nan;100449.06;5010052;28;19953;-69
2024/03/14 10:26:14;;;;;;;;;;;;;;;23.18;nan;100444.72;5007348;28;20481;-70
2024/03/14 10:28:40;;;;;;;;;;;;;;;23.83;nan;100292.41;5007293;28;19941;-71
2024/03/14 10:31:06;;;;;;;;;;;;;;;;;;5006555;28;19924;-70
2024/03/14 10:33:32;;;;;;;;;;;;;;;24.36;nan;100280.25;5007604;28;20162;-70
2024/03/14 10:35:58;;;;;;;;;;;;;;;25.00;nan;100301.34;5006470;28;19925;-70
2024/03/14 10:38:25;;;;;;;;;;;;;;;25.15;nan;100298.03;5006966;28;20071;-70
2024/03/14 10:40:53;;;;;;;;;;;;;;;25.57;nan;100306.31;5006397;28;20298;-70
2024/03/14 10:43:19;;;;;;;;;;;;;;;25.80;nan;100309.75;5007340;28;20371;-70
2024/03/14 10:45:44;;;;;;;;;;;;;;;25.68;nan;100301.81;5006805;28;19964;-70
2024/03/14 10:48:10;;;;;;;;;;;;;;;26.08;nan;100310.53;5005821;28;19975;-70
2024/03/14 10:50:36;;;;;;;;;;;;;;;26.00;nan;100309.94;5006744;28;20008;-70
2024/03/14 10:53:02;;;;;;;;;;;;;;;25.91;nan;100300.69;5006365;28;19929;-70
2024/03/14 10:55:32;;;;;;;;;;;;;;;26.05;nan;100295.63;5006943;28;19921;-70
2024/03/14 10:57:58;;;;;;;;;;;;;;;26.45;nan;100305.91;5006482;28;20044;-70
2024/03/14 11:00:24;;;;;;;;;;;;;;;27.11;nan;100301.88;5005717;28;20067;-70
2024/03/14 11:02:50;;;;;;;;;;;;;;;27.43;nan;100292.75;5006783;28;20698;-70
2024/03/14 11:05:22;;;;;;;;;;;;;;;27.51;nan;100290.31;5006892;28;19956;-70
2024/03/14 11:07:51;;;;;;;;;;;;;;;27.90;nan;100292.50;5007017;28;20639;-70
2024/03/14 11:10:28;;;;;;;;;;;;;;;28.12;nan;100294.94;5006558;28;19924;-70
2024/03/14 11:13:05;;;;;;;;;;;;;;;28.35;nan;100292.72;5006215;28;19921;-70
2024/03/14 11:15:30;;;;;;;;;;;;;;;;;;5007479;28;20134;-70
2024/03/14 11:17:59;;;;;;;;;;;;;;;28.58;nan;100281.25;5006635;28;20385;-70
2024/03/14 11:20:27;;;;;;;;;;;;;;;28.75;nan;100275.47;5006139;28;20012;-70
2024/03/14 11:22:56;;;;;;;;;;;;;;;29.04;nan;100276.69;5015312;28;20374;-70
2024/03/14 11:25:22;;;;;;;;;;;;;;;29.16;nan;100274.47;5007575;28;19999;-70
2024/03/14 11:27:49;;;;;;;;;;;;;;;29.06;nan;100280.75;5007862;28;20428;-70
2024/03/14 11:30:19;;;;;;;;;;;;;;;28.45;nan;100281.00;5007490;28;20000;-70
2024/03/14 11:32:56;;;;;;;;;;;;;;;27.25;nan;100254.16;5010208;28;19923;-70
2024/03/14 11:35:28;;;;;;;;;;;;;;;26.49;nan;100258.22;5009124;28;20260;-70
2024/03/14 11:37:53;;;;;;;;;;;;;;;26.38;nan;100237.53;5008520;28;20557;-70
2024/03/14 11:40:20;;;;;;;;;;;;;;;26.87;nan;100226.38;5008617;28;20000;-70
2024/03/14 11:42:51;;;;;;;;;;;;;;;27.09;nan;100239.72;5012305;28;19949;-70
2024/03/14 11:45:16;;;;;;;;;;;;;;;26.76;nan;100229.31;5006104;28;19983;-70
2024/03/14 11:47:42;;;;;;;;;;;;;;;26.19;nan;100220.91;5013776;28;19922;-69
2024/03/14 11:50:13;;;;;;;;;;;;;;;25.47;nan;100240.44;5011957;28;20009;-70
2024/03/14 11:52:40;;;;;;;;;;;;;;;;;;5011212;28;19922;-70
2024/03/14 11:55:07;;;;;;;;;;;;;;;24.02;nan;100355.09;5011340;28;20494;-70
2024/03/14 11:57:33;;;;;;;;;;;;;;;23.43;nan;100353.50;5011997;28;19929;-69
2024/03/14 12:00:04;;;;;;;;;;;;;;;23.06;nan;100342.25;5010128;28;19931;-69
2024/03/14 12:02:29;;;;;;;;;;;;;;;22.84;nan;100344.75;5016211;28;19925;-69
2024/03/14 12:04:54;;;;;;;;;;;;;;;22.86;nan;100339.94;5013257;28;19928;-70
2024/03/14 12:07:19;;;;;;;;;;;;;;;22.75;nan;100333.50;5010701;28;19925;-70
2024/03/14 12:09:45;;;;;;;;;;;;;;;22.74;nan;100334.56;5010594;28;19960;-70
2024/03/14 12:12:10;;;;;;;;;;;;;;;22.34;nan;100337.97;5018139;28;19925;-70
2024/03/14 12:14:35;;;;;;;;;;;;;;;21.98;nan;100325.50;5011111;28;19929;-70
2024/03/14 12:17:00;;;;;;;;;;;;;;;21.75;nan;100320.91;5010452;28;20395;-70
2024/03/14 12:19:26;;;;;;;;;;;;;;;21.32;nan;100317.34;5010679;28;20305;-69
2024/03/14 12:21:54;;;;;;;;;;;;;;;21.16;nan;100313.38;5009540;28;19926;-69
2024/03/14 12:24:20;;;;;;;;;;;;;;;21.09;nan;100315.34;5008765;28;20390;-69
2024/03/14 12:26:46;;;;;;;;;;;;;;;20.83;nan;100312.97;5010682;28;19930;-69
2024/03/14 12:29:12;;;;;;;;;;;;;;;20.52;nan;100301.31;5011411;28;19921;-69
2024/03/14 12:31:37;;;;;;;;;;;;;;;20.24;nan;100305.31;5011641;28;19926;-69
2024/03/14 12:34:03;;;;;;;;;;;;;;;19.87;nan;100297.16;5015104;28;19922;-70
2024/03/14 12:36:29;;;;;;;;;;;;;;;19.56;nan;100292.59;5016199;28;19921;-70
2024/03/14 12:38:55;;;;;;;;;;;;;;;19.41;nan;100284.03;5012986;28;19924;-70
2024/03/14 12:41:21;;;;;;;;;;;;;;;19.21;nan;100274.25;5010018;28;20146;-70
2024/03/14 12:43:49;;;;;;;;;;;;;;;19.06;nan;100273.72;5009794;28;19928;-69
2024/03/14 12:46:19;;;;;;;;;;;;;;;19.04;nan;100268.56;5008605;28;19941;-72
2024/03/14 12:48:45;;;;;;;;;;;;;;;18.92;nan;100270.25;5014348;28;19964;-72
2024/03/14 12:51:12;;;;;;;;;;;;;;;18.83;nan;100258.97;4997538;28;19979;-71
2024/03/14 12:53:37;;;;;;;;;;;;;;;18.72;nan;100258.78;5009403;28;20004;-71
2024/03/14 12:56:04;;;;;;;;;;;;;;;18.72;nan;100259.59;5010493;28;20013;-72
2024/03/14 12:58:30;;;;;;;;;;;;;;;18.65;nan;100245.41;5011812;28;19929;-72